Gold Run, California
Current Conditions -  °F | °C
As of 12:40 PM on Tuesday 21 Oct 2014 (Local Time) from KGOO Reporting Station
Clear Clear  
Wind Chill: 57°   Ceiling: Unl
Heat Index: 57°   Visibility: 10mi
Dew Point: 39°   Wind: 7mph
Humidity: 51%   Direction: 310°NW
Pressure: 30.1"   Gusts: NA
Location:  39.18°N, 120.85°W
Report Text: KGOO 211940Z AUTO 31006KT 10SM CLR 14/04 A3010 RMK AO1
Loading
Personal Weather Stations






























Interactive Weather Map
Tropical Storm Tracking
New forecast layout! Learn more

10-Day Weather Forecast

Advertisements
Track Severe Weather on mobile